Time;durP1;ratioP1;P1;durP2;ratioP2;P2;SDS_P1;SDS_P2;PMS_P1;PMS_P2;Temp;Humidity;BMP_temperature;BMP_pressure;BME280_temperature;BME280_humidity;BME280_pressure;Samples;Min_cycle;Max_cycle;Signal;HPM_P1;HPM_P2
2023/10/11 00:00:51;;;;;;;6.23;5.70;;;20.60;99.00;;;;;;4973414;28;20431;-63
2023/10/11 00:03:16;;;;;;;6.90;6.20;;;20.60;99.20;;;;;;4956167;28;20436;-63
2023/10/11 00:05:43;;;;;;;7.30;6.63;;;20.60;99.10;;;;;;4953670;29;20763;-60
2023/10/11 00:08:16;;;;;;;6.60;6.10;;;20.60;98.90;;;;;;4944356;28;20420;-64
2023/10/11 00:10:53;;;;;;;7.40;6.40;;;20.60;98.60;;;;;;4972641;28;20433;-60
2023/10/11 00:13:20;;;;;;;5.97;5.47;;;20.60;98.60;;;;;;4972594;28;20537;-63
2023/10/11 00:15:49;;;;;;;6.20;5.53;;;20.60;98.70;;;;;;4972554;28;20454;-63
2023/10/11 00:18:24;;;;;;;7.23;6.53;;;20.60;98.30;;;;;;4972559;28;20451;-63
2023/10/11 00:20:51;;;;;;;6.83;6.13;;;20.70;98.70;;;;;;4972323;28;20424;-63
2023/10/11 00:23:22;;;;;;;6.77;5.40;;;20.70;98.80;;;;;;4973606;28;20427;-63
2023/10/11 00:26:00;;;;;;;6.20;5.70;;;20.70;99.80;;;;;;4972482;28;20424;-63
2023/10/11 00:28:26;;;;;;;6.33;5.60;;;20.70;99.70;;;;;;4972631;28;20464;-64
2023/10/11 00:30:55;;;;;;;5.60;5.10;;;20.70;98.90;;;;;;4972054;28;20424;-63
2023/10/11 00:33:21;;;;;;;6.07;5.57;;;20.70;99.70;;;;;;4973099;28;20532;-63
2023/10/11 00:35:48;;;;;;;6.67;5.37;;;20.70;99.90;;;;;;4971903;28;20460;-63
2023/10/11 00:38:29;;;;;;;7.30;5.80;;;20.70;99.50;;;;;;4972967;28;20184;-64
2023/10/11 00:41:01;;;;;;;6.13;5.53;;;20.60;99.90;;;;;;4972532;28;20412;-63
2023/10/11 00:43:39;;;;;;;7.80;6.10;;;20.60;99.90;;;;;;4972302;28;20428;-63
2023/10/11 00:46:08;;;;;;;8.67;5.90;;;20.50;99.90;;;;;;4969766;28;20434;-64
2023/10/11 00:48:51;;;;;;;5.90;5.40;;;20.50;99.90;;;;;;4953721;28;20451;-64
2023/10/11 00:51:19;;;;;;;6.70;6.10;;;20.40;99.90;;;;;;4971300;28;20415;-63
2023/10/11 00:53:46;;;;;;;7.13;5.93;;;20.30;99.90;;;;;;4954991;28;20807;-60
2023/10/11 00:56:13;;;;;;;7.10;6.40;;;20.30;99.90;;;;;;4973117;28;20415;-63
2023/10/11 00:58:41;;;;;;;8.60;5.90;;;20.20;99.90;;;;;;4973576;28;20753;-63
2023/10/11 01:01:08;;;;;;;6.33;5.73;;;20.20;99.90;;;;;;4955432;28;20411;-63
2023/10/11 01:03:40;;;;;;;6.13;5.53;;;20.10;99.90;;;;;;4972915;28;20423;-63
2023/10/11 01:06:10;;;;;;;8.27;5.90;;;20.10;99.90;;;;;;4972242;28;20438;-63
2023/10/11 01:08:40;;;;;;;9.37;5.77;;;20.00;99.90;;;;;;4975768;28;20427;-63
2023/10/11 01:11:11;;;;;;;6.10;5.50;;;20.00;99.90;;;;;;4976074;28;20411;-63
2023/10/11 01:13:40;;;;;;;6.30;5.70;;;20.00;99.90;;;;;;4976395;28;20466;-63
2023/10/11 01:16:09;;;;;;;7.50;6.80;;;20.00;99.90;;;;;;4975809;28;20519;-63
2023/10/11 01:18:38;;;;;;;7.30;6.13;;;20.00;99.90;;;;;;4976278;28;20419;-63
2023/10/11 01:21:04;;;;;;;10.50;6.13;;;20.00;99.90;;;;;;4975751;28;20435;-63
2023/10/11 01:23:34;;;;;;;6.43;5.83;;;20.00;99.90;;;;;;4974922;28;20432;-63
2023/10/11 01:26:06;;;;;;;10.00;6.37;;;20.00;99.90;;;;;;4975543;28;20403;-63
2023/10/11 01:28:36;;;;;;;7.00;5.87;;;20.00;99.90;;;;;;4976094;28;20463;-63
2023/10/11 01:31:12;;;;;;;6.97;6.33;;;20.10;99.90;;;;;;4975597;28;20419;-64
2023/10/11 01:33:43;;;;;;;7.43;6.27;;;20.10;99.90;;;;;;4976146;28;20447;-63
2023/10/11 01:36:22;;;;;;;6.60;5.80;;;20.20;99.90;;;;;;4975712;28;20428;-63
2023/10/11 01:38:48;;;;;;;7.00;5.97;;;20.10;99.90;;;;;;4975511;28;20396;-62
2023/10/11 01:41:22;;;;;;;8.20;6.30;;;20.10;99.90;;;;;;4976383;28;20467;-63
2023/10/11 01:43:49;;;;;;;9.23;6.33;;;20.10;99.90;;;;;;4975399;28;20431;-62
2023/10/11 01:46:16;;;;;;;9.90;6.37;;;20.10;99.90;;;;;;4975556;28;20515;-63
2023/10/11 01:48:44;;;;;;;6.80;6.10;;;20.20;99.90;;;;;;4974135;28;20429;-63
2023/10/11 01:51:09;;;;;;;6.93;6.23;;;20.20;99.90;;;;;;4962826;28;20471;-63
2023/10/11 01:53:38;;;;;;;7.17;6.47;;;20.20;99.90;;;;;;4972398;28;20507;-63
2023/10/11 01:56:05;;;;;;;8.40;6.37;;;20.20;99.90;;;;;;4974638;28;20246;-63
2023/10/11 01:58:30;;;;;;;6.40;5.80;;;20.10;99.90;;;;;;4975927;28;20408;-63
2023/10/11 02:00:56;;;;;;;6.60;6.00;;;20.20;99.90;;;;;;4960769;28;20980;-63
2023/10/11 02:03:24;;;;;;;8.13;6.50;;;20.20;99.90;;;;;;4956531;29;20177;-63
2023/10/11 02:05:52;;;;;;;11.40;7.07;;;20.20;99.90;;;;;;4955648;29;20174;-63
2023/10/11 02:08:18;;;;;;;8.30;5.80;;;20.20;99.90;;;;;;4956631;29;20468;-63
2023/10/11 02:10:44;;;;;;;8.67;6.17;;;20.10;99.90;;;;;;4956354;29;20803;-63
2023/10/11 02:13:11;;;;;;;6.53;5.70;;;20.10;99.90;;;;;;4956026;29;20212;-63
2023/10/11 02:15:39;;;;;;;7.00;5.60;;;20.10;99.90;;;;;;4956269;29;20908;-63
2023/10/11 02:18:10;;;;;;;6.13;5.63;;;20.10;99.90;;;;;;4957927;28;20427;-63
2023/10/11 02:20:43;;;;;;;11.83;6.37;;;20.10;99.90;;;;;;4967077;28;20435;-63
2023/10/11 02:23:11;;;;;;;6.97;6.03;;;20.00;99.90;;;;;;4974780;28;20479;-63
2023/10/11 02:25:37;;;;;;;6.83;5.80;;;20.10;99.90;;;;;;4975505;28;20772;-63
2023/10/11 02:28:09;;;;;;;6.93;6.13;;;20.00;99.90;;;;;;4973823;28;20510;-63
2023/10/11 02:30:38;;;;;;;8.30;5.93;;;20.00;99.90;;;;;;4975405;28;20495;-62
2023/10/11 02:33:07;;;;;;;6.00;5.37;;;20.00;99.90;;;;;;4974134;28;20452;-63
2023/10/11 02:35:50;;;;;;;9.20;6.13;;;20.00;99.90;;;;;;4958030;28;20416;-63
2023/10/11 02:38:22;;;;;;;7.13;6.43;;;20.00;99.90;;;;;;4974993;28;20415;-64
2023/10/11 02:40:55;;;;;;;9.60;6.53;;;19.90;99.90;;;;;;4974933;28;20404;-60
2023/10/11 02:43:25;;;;;;;6.77;6.10;;;19.90;99.90;;;;;;4975241;28;20900;-63
2023/10/11 02:45:52;;;;;;;9.40;6.50;;;19.90;99.90;;;;;;4974047;28;20432;-60
2023/10/11 02:48:19;;;;;;;7.40;6.30;;;20.00;99.90;;;;;;4974436;28;20828;-63
2023/10/11 02:50:49;;;;;;;8.50;6.00;;;20.00;99.90;;;;;;4973320;28;20433;-63
2023/10/11 02:53:21;;;;;;;6.30;5.60;;;20.00;99.90;;;;;;4973850;28;20451;-63
2023/10/11 02:55:57;;;;;;;6.20;5.60;;;20.00;99.90;;;;;;4957869;28;20396;-63
2023/10/11 02:58:24;;;;;;;6.23;5.63;;;20.00;99.90;;;;;;4975234;28;20419;-63
2023/10/11 03:00:56;;;;;;;6.37;5.80;;;20.00;99.90;;;;;;4974424;28;20904;-60
2023/10/11 03:03:26;;;;;;;7.37;5.77;;;20.00;99.90;;;;;;4957355;28;20908;-63
2023/10/11 03:05:55;;;;;;;8.57;5.83;;;20.00;99.90;;;;;;4974394;28;20891;-60
2023/10/11 03:08:21;;;;;;;7.07;6.40;;;20.00;99.90;;;;;;4967082;28;20433;-64
2023/10/11 03:10:57;;;;;;;6.50;5.73;;;20.00;99.90;;;;;;4955062;29;20411;-63
2023/10/11 03:13:29;;;;;;;9.23;6.27;;;20.00;99.90;;;;;;4959719;28;20497;-62
2023/10/11 03:15:57;;;;;;;7.90;6.20;;;19.90;99.90;;;;;;4968628;28;21019;-63
2023/10/11 03:18:32;;;;;;;9.00;6.60;;;19.90;99.90;;;;;;4955361;28;20424;-63
2023/10/11 03:21:08;;;;;;;6.30;5.67;;;19.90;99.90;;;;;;4972624;28;20424;-63
2023/10/11 03:23:44;;;;;;;8.50;5.90;;;19.90;99.90;;;;;;4973207;28;20415;-63
2023/10/11 03:28:58;;;;;;;6.67;6.07;;;19.90;99.90;;;;;;4973793;28;20415;-62
2023/10/11 03:31:28;;;;;;;9.50;6.83;;;19.90;99.90;;;;;;4973720;28;20410;-63
2023/10/11 03:33:57;;;;;;;7.67;6.50;;;19.90;99.90;;;;;;4956119;28;20620;-60
2023/10/11 03:36:34;;;;;;;8.53;6.10;;;19.90;99.90;;;;;;4974009;28;20478;-63
2023/10/11 03:39:09;;;;;;;7.60;6.17;;;19.90;99.90;;;;;;4973636;28;20399;-63
2023/10/11 03:41:45;;;;;;;8.30;7.00;;;19.90;99.90;;;;;;4974066;28;20404;-64
2023/10/11 03:44:20;;;;;;;9.40;5.90;;;19.90;99.90;;;;;;4972432;28;20420;-63
2023/10/11 03:46:54;;;;;;;10.30;7.20;;;19.90;99.90;;;;;;4973560;28;20495;-64
2023/10/11 03:51:50;;;;;;;6.90;6.20;;;19.80;99.90;;;;;;4955321;28;20948;-63
2023/10/11 03:54:21;;;;;;;7.33;5.77;;;19.80;99.90;;;;;;4954681;28;20464;-63
2023/10/11 03:56:55;;;;;;;17.27;6.87;;;19.80;99.90;;;;;;4954299;28;20944;-63
2023/10/11 03:59:25;;;;;;;7.13;6.47;;;19.80;99.90;;;;;;4959664;28;20412;-63
2023/10/11 04:01:52;;;;;;;6.57;6.00;;;19.80;99.90;;;;;;4973717;28;20412;-63
2023/10/11 04:04:20;;;;;;;7.73;6.60;;;19.90;99.90;;;;;;4964482;28;20467;-63
2023/10/11 04:06:51;;;;;;;6.80;5.63;;;19.90;99.90;;;;;;4954354;29;20405;-63
2023/10/11 04:09:37;;;;;;;6.77;6.07;;;19.80;99.90;;;;;;4965465;28;20858;-63
2023/10/11 04:12:10;;;;;;;9.00;6.37;;;19.80;99.90;;;;;;4972787;28;20448;-64
2023/10/11 04:14:47;;;;;;;9.30;5.20;;;19.80;99.90;;;;;;4973331;28;20503;-63
2023/10/11 04:20:00;;;;;;;12.00;5.97;;;19.80;99.90;;;;;;4954270;29;20408;-63
2023/10/11 04:22:31;;;;;;;7.53;6.33;;;19.80;99.90;;;;;;4955431;28;20424;-63
2023/10/11 04:24:57;;;;;;;7.43;5.80;;;19.80;99.90;;;;;;4953578;29;20440;-60
2023/10/11 04:29:53;;;;;;;6.33;5.73;;;19.70;99.90;;;;;;4954415;28;20881;-60
2023/10/11 04:35:18;;;;;;;8.97;6.40;;;19.70;99.90;;;;;;4953336;29;20158;-63
2023/10/11 04:37:51;;;;;;;7.57;6.20;;;19.70;99.90;;;;;;4954012;28;20758;-62
2023/10/11 04:40:38;;;;;;;7.37;6.73;;;19.70;99.90;;;;;;4971688;28;20584;-63
2023/10/11 04:43:18;;;;;;;8.00;6.10;;;19.70;99.90;;;;;;4974557;28;20407;-63
2023/10/11 04:45:44;;;;;;;9.00;6.10;;;19.70;99.90;;;;;;4976668;28;20896;-63
2023/10/11 04:48:29;;;;;;;6.80;6.20;;;19.70;99.90;;;;;;4976027;28;20788;-66
2023/10/11 04:51:04;;;;;;;7.90;6.00;;;19.70;99.90;;;;;;4976489;28;20426;-60
2023/10/11 04:53:54;;;;;;;8.43;6.73;;;19.70;99.90;;;;;;4977245;28;20820;-63
2023/10/11 05:02:08;;;;;;;10.63;7.43;;;19.70;99.90;;;;;;4975292;28;20436;-60
2023/10/11 05:04:34;;;;;;;8.63;7.00;;;19.70;99.90;;;;;;4966096;28;20431;-63
2023/10/11 05:07:45;;;;;;;8.50;7.77;;;19.70;99.90;;;;;;4975793;28;20900;-60
2023/10/11 05:12:41;;;;;;;9.00;6.50;;;19.70;99.70;;;;;;4977075;28;20538;-63
2023/10/11 05:15:07;;;;;;;6.83;6.03;;;19.60;99.90;;;;;;4975619;28;20427;-63
2023/10/11 05:17:38;;;;;;;7.93;6.70;;;19.60;99.90;;;;;;4976006;28;20523;-62
2023/10/11 05:28:26;;;;;;;11.27;7.17;;;19.60;99.60;;;;;;4955058;28;20474;-63
2023/10/11 05:36:51;;;;;;;8.00;6.80;;;19.70;99.70;;;;;;4975055;28;20424;-63
2023/10/11 05:53:01;;;;;;;10.20;7.40;;;19.50;99.60;;;;;;4974731;28;20918;-60
2023/10/11 05:55:27;;;;;;;8.67;7.90;;;19.50;99.90;;;;;;4975295;28;20577;-63
2023/10/11 05:57:52;;;;;;;8.13;7.40;;;19.60;99.70;;;;;;4976079;28;20502;-63
2023/10/11 06:00:25;;;;;;;9.37;8.57;;;19.60;99.90;;;;;;4974731;28;20173;-63
2023/10/11 06:02:52;;;;;;;7.67;6.87;;;19.60;99.80;;;;;;4974972;28;20533;-63
2023/10/11 06:05:22;;;;;;;8.90;8.00;;;19.70;99.70;;;;;;4974620;28;20416;-63
2023/10/11 06:08:00;;;;;;;8.40;7.00;;;19.60;99.30;;;;;;4974966;28;20462;-66
2023/10/11 06:10:32;;;;;;;10.30;6.90;;;19.70;99.60;;;;;;4957772;28;20454;-66
2023/10/11 06:12:58;;;;;;;7.03;6.40;;;19.60;99.80;;;;;;4974059;28;20577;-66
2023/10/11 06:15:24;;;;;;;16.30;6.70;;;19.70;99.60;;;;;;4958198;28;20411;-66
2023/10/11 06:17:54;;;;;;;8.53;7.67;;;19.80;99.90;;;;;;4974958;28;20432;-66
2023/10/11 06:20:25;;;;;;;7.17;6.47;;;19.90;99.40;;;;;;4975584;28;20191;-67
2023/10/11 06:22:50;;;;;;;6.67;6.07;;;20.00;98.70;;;;;;4975750;28;20410;-65
2023/10/11 06:30:27;;;;;;;9.00;7.07;;;20.20;98.60;;;;;;4975335;28;20443;-66
2023/10/11 06:32:53;;;;;;;8.20;6.40;;;20.20;97.50;;;;;;4975573;28;20204;-66
2023/10/11 06:35:30;;;;;;;6.97;6.27;;;20.30;98.40;;;;;;4973379;28;20884;-66
2023/10/11 06:37:56;;;;;;;7.00;6.40;;;20.40;97.90;;;;;;4975724;28;20165;-67
2023/10/11 06:40:38;;;;;;;8.13;7.30;;;20.40;97.80;;;;;;4957389;28;20859;-66
2023/10/11 06:43:12;;;;;;;9.30;7.63;;;20.40;96.90;;;;;;4972790;28;20223;-66
2023/10/11 06:45:40;;;;;;;8.13;7.30;;;20.40;96.80;;;;;;4975379;28;20401;-67
2023/10/11 06:48:09;;;;;;;6.77;6.17;;;20.40;96.60;;;;;;4973763;28;20431;-66
2023/10/11 06:50:38;;;;;;;6.77;6.10;;;20.40;96.20;;;;;;4974750;28;20450;-66
2023/10/11 06:53:08;;;;;;;6.83;6.23;;;20.40;96.10;;;;;;4973440;28;20506;-66
2023/10/11 06:55:35;;;;;;;9.93;6.30;;;20.30;96.30;;;;;;4973648;28;21159;-66
2023/10/11 06:58:09;;;;;;;8.50;7.77;;;20.30;96.20;;;;;;4971863;28;20446;-67
2023/10/11 07:00:45;;;;;;;10.13;7.40;;;20.30;96.60;;;;;;4974169;28;20452;-66
2023/10/11 07:05:56;;;;;;;6.40;5.80;;;20.40;97.10;;;;;;4972972;28;20447;-66
2023/10/11 07:08:31;;;;;;;7.90;6.20;;;20.40;99.40;;;;;;4972732;28;20452;-67
2023/10/11 07:13:54;;;;;;;8.70;6.60;;;20.50;99.90;;;;;;4971384;28;20462;-66
2023/10/11 07:16:27;;;;;;;7.60;7.00;;;20.50;99.90;;;;;;4973934;28;20434;-67
2023/10/11 07:18:54;;;;;;;6.47;5.87;;;20.60;99.90;;;;;;4974491;28;20499;-67
2023/10/11 07:21:51;;;;;;;7.90;7.10;;;20.50;99.90;;;;;;4973806;28;20835;-69
2023/10/11 07:24:30;;;;;;;8.87;8.07;;;20.40;97.40;;;;;;4970885;28;20408;-68
2023/10/11 07:27:12;;;;;;;10.50;8.40;;;20.40;98.60;;;;;;4971444;28;20517;-68
2023/10/11 07:29:42;;;;;;;8.00;6.50;;;20.50;98.40;;;;;;4956025;28;20538;-69
2023/10/11 07:32:11;;;;;;;9.10;6.00;;;20.50;98.10;;;;;;4971429;28;20462;-67
2023/10/11 07:34:39;;;;;;;6.97;6.23;;;20.60;98.90;;;;;;4970425;28;20427;-75
2023/10/11 07:37:05;;;;;;;9.20;7.43;;;20.60;97.60;;;;;;4973893;28;20986;-67
2023/10/11 07:39:35;;;;;;;10.10;8.40;;;20.70;98.50;;;;;;4974432;28;20408;-72
2023/10/11 07:42:18;;;;;;;13.43;9.97;;;20.70;98.10;;;;;;4974074;28;20776;-67
2023/10/11 07:44:50;;;;;;;9.70;8.17;;;20.70;96.80;;;;;;4973373;28;20416;-67
2023/10/11 07:47:16;;;;;;;8.37;7.17;;;20.70;97.40;;;;;;4972884;28;20447;-67
2023/10/11 07:49:43;;;;;;;10.03;7.50;;;20.70;96.70;;;;;;4961949;28;20467;-67
2023/10/11 07:52:09;;;;;;;7.10;6.40;;;20.80;96.90;;;;;;4962371;28;20455;-63
2023/10/11 07:54:36;;;;;;;8.10;7.30;;;20.80;97.30;;;;;;4969882;28;20419;-66
2023/10/11 07:57:04;;;;;;;6.73;6.07;;;20.80;97.10;;;;;;4971357;28;20436;-65
2023/10/11 07:59:30;;;;;;;6.93;6.27;;;20.80;96.20;;;;;;4975752;28;20419;-67
2023/10/11 08:02:07;;;;;;;10.07;6.70;;;20.90;96.20;;;;;;4971872;28;20432;-67
2023/10/11 08:04:35;;;;;;;10.00;6.77;;;20.90;96.90;;;;;;4974155;28;20411;-67
2023/10/11 08:07:06;;;;;;;8.77;6.13;;;21.00;96.10;;;;;;4973357;28;20403;-66
2023/10/11 08:09:45;;;;;;;6.47;5.87;;;21.00;95.40;;;;;;4973962;28;20392;-67
2023/10/11 08:12:13;;;;;;;9.63;8.20;;;21.10;95.40;;;;;;4969830;28;20498;-66
2023/10/11 08:14:46;;;;;;;8.80;6.97;;;21.10;95.50;;;;;;4973690;28;20739;-66
2023/10/11 08:17:16;;;;;;;8.00;7.00;;;21.20;96.40;;;;;;4957165;28;20867;-66
2023/10/11 08:19:46;;;;;;;8.27;6.10;;;21.20;95.50;;;;;;4955658;28;20467;-69
2023/10/11 08:22:14;;;;;;;8.73;5.40;;;21.20;95.30;;;;;;4965379;28;20951;-67
2023/10/11 08:24:47;;;;;;;7.63;6.93;;;21.20;95.70;;;;;;4961441;28;20429;-67
2023/10/11 08:27:16;;;;;;;12.80;8.50;;;21.30;96.20;;;;;;4961767;28;20464;-67
2023/10/11 08:29:45;;;;;;;13.10;10.30;;;21.30;96.60;;;;;;4955173;28;20443;-67
2023/10/11 08:32:14;;;;;;;7.97;6.10;;;21.40;95.20;;;;;;4967956;28;20551;-66
2023/10/11 08:34:46;;;;;;;8.67;7.43;;;21.40;95.10;;;;;;4971887;28;20462;-66
2023/10/11 08:37:14;;;;;;;10.80;7.27;;;21.50;95.70;;;;;;4972361;28;20511;-66
2023/10/11 08:39:44;;;;;;;8.77;6.20;;;21.50;95.90;;;;;;4966753;28;20474;-67
2023/10/11 08:42:17;;;;;;;7.83;7.10;;;21.60;94.70;;;;;;4955148;28;20519;-66
2023/10/11 08:44:44;;;;;;;11.43;9.83;;;21.60;95.00;;;;;;4972314;28;20419;-68
2023/10/11 08:47:16;;;;;;;18.40;14.30;;;21.70;99.50;;;;;;4972413;28;20515;-67
2023/10/11 08:49:48;;;;;;;6.67;5.97;;;21.60;99.90;;;;;;4973070;28;20495;-66
2023/10/11 08:52:32;;;;;;;16.50;11.60;;;21.60;96.80;;;;;;4964021;28;20462;-67
2023/10/11 08:54:59;;;;;;;20.00;14.20;;;21.60;97.10;;;;;;4973210;28;20404;-69
2023/10/11 08:57:25;;;;;;;12.23;10.40;;;21.60;99.90;;;;;;4972218;28;20429;-69
2023/10/11 08:59:58;;;;;;;11.80;10.53;;;21.60;99.90;;;;;;4973702;28;20511;-69
2023/10/11 09:02:26;;;;;;;98.13;71.43;;;21.70;98.40;;;;;;4971937;28;20439;-70
2023/10/11 09:05:32;;;;;;;310.20;258.27;;;21.70;95.60;;;;;;4973444;28;20411;-69
2023/10/11 09:08:02;;;;;;;10.27;9.23;;;21.70;95.30;;;;;;4973686;28;20400;-71
2023/10/11 09:10:33;;;;;;;14.17;12.63;;;21.80;95.50;;;;;;4972604;28;20396;-68
2023/10/11 09:13:01;;;;;;;7.77;6.97;;;21.90;96.00;;;;;;4955880;28;21006;-68
2023/10/11 09:15:43;;;;;;;15.17;10.80;;;22.00;95.00;;;;;;4971843;28;20435;-68
2023/10/11 09:18:14;;;;;;;8.83;7.77;;;22.10;95.00;;;;;;4956106;28;20433;-70
2023/10/11 09:21:09;;;;;;;13.23;10.27;;;22.10;93.60;;;;;;4972230;28;20408;-70
2023/10/11 09:23:46;;;;;;;8.50;7.70;;;22.20;95.30;;;;;;4972801;28;20412;-71
2023/10/11 09:26:20;;;;;;;7.53;6.10;;;22.30;94.00;;;;;;4955358;28;20485;-68
2023/10/11 09:28:56;;;;;;;10.00;6.40;;;22.40;93.10;;;;;;4974564;28;20418;-70
2023/10/11 09:31:23;;;;;;;9.50;8.00;;;22.50;92.10;;;;;;4976255;28;20394;-70
2023/10/11 09:33:59;;;;;;;7.10;6.07;;;22.60;94.80;;;;;;4976472;28;20956;-70
2023/10/11 09:36:28;;;;;;;6.00;5.50;;;22.70;91.90;;;;;;4976215;28;20431;-71
2023/10/11 09:38:58;;;;;;;7.83;5.90;;;22.80;91.90;;;;;;4976668;28;20411;-72
2023/10/11 09:41:28;;;;;;;7.20;6.47;;;23.00;92.40;;;;;;4958785;28;20408;-69
2023/10/11 09:43:59;;;;;;;7.50;5.47;;;23.20;92.00;;;;;;4975480;28;20435;-71
2023/10/11 09:46:29;;;;;;;7.63;6.90;;;23.20;92.00;;;;;;4958550;28;20419;-69
2023/10/11 09:49:03;;;;;;;7.40;5.80;;;23.30;92.40;;;;;;4976548;28;20440;-72
2023/10/11 09:51:30;;;;;;;6.33;5.73;;;23.40;91.10;;;;;;4958393;28;20462;-71
2023/10/11 09:54:07;;;;;;;6.80;5.77;;;23.50;90.50;;;;;;4959039;28;20467;-70
2023/10/11 09:56:48;;;;;;;134.23;111.93;;;23.60;90.90;;;;;;4974444;28;20658;-71
2023/10/11 09:59:36;;;;;;;64.07;48.73;;;23.60;90.20;;;;;;4942363;28;20434;-70
2023/10/11 10:02:19;;;;;;;17.67;15.87;;;23.70;90.30;;;;;;4975320;28;20515;-71
2023/10/11 10:04:51;;;;;;;12.90;9.07;;;23.70;90.50;;;;;;4976389;28;20503;-70
2023/10/11 10:07:22;;;;;;;7.17;6.50;;;23.80;89.50;;;;;;4974842;28;20436;-69
2023/10/11 10:09:59;;;;;;;7.50;6.87;;;23.80;88.10;;;;;;4975957;28;20483;-69
2023/10/11 10:12:32;;;;;;;7.03;5.90;;;23.70;88.60;;;;;;4975452;28;20450;-71
2023/10/11 10:15:08;;;;;;;6.87;5.90;;;23.80;89.00;;;;;;4976069;28;20403;-71
2023/10/11 10:17:35;;;;;;;8.50;6.90;;;24.00;90.00;;;;;;4975471;28;20753;-71
2023/10/11 10:20:35;;;;;;;8.63;6.00;;;24.10;87.90;;;;;;4975946;28;20414;-71
2023/10/11 10:23:16;;;;;;;7.00;5.97;;;24.10;88.50;;;;;;4975936;28;20778;-71
2023/10/11 10:25:48;;;;;;;7.03;6.37;;;24.30;88.10;;;;;;4955069;29;20421;-71
2023/10/11 10:28:34;;;;;;;6.60;6.00;;;24.40;87.80;;;;;;4955202;28;20564;-71
2023/10/11 10:31:11;;;;;;;7.70;7.00;;;24.50;89.10;;;;;;4964837;28;20452;-72
2023/10/11 10:33:50;;;;;;;6.70;6.00;;;24.60;86.60;;;;;;4966667;28;20808;-71
2023/10/11 10:36:21;;;;;;;6.70;6.10;;;24.70;87.40;;;;;;4954815;28;20491;-65
2023/10/11 10:41:36;;;;;;;7.00;5.83;;;24.70;89.10;;;;;;4967782;28;20442;-69
2023/10/11 10:44:17;;;;;;;7.47;5.50;;;24.80;88.30;;;;;;4965260;28;20437;-70
2023/10/11 10:46:51;;;;;;;5.80;5.20;;;24.70;89.00;;;;;;4968115;28;20756;-71
2023/10/11 10:49:20;;;;;;;6.10;5.60;;;24.80;86.40;;;;;;4967780;28;20435;-69
2023/10/11 10:51:53;;;;;;;7.13;6.10;;;24.90;87.70;;;;;;4967637;28;20503;-70
2023/10/11 10:54:23;;;;;;;6.23;5.73;;;24.90;87.10;;;;;;4965077;28;20467;-69
2023/10/11 10:56:57;;;;;;;6.80;6.20;;;24.90;86.50;;;;;;4965911;28;20495;-70
2023/10/11 10:59:26;;;;;;;7.60;6.90;;;24.80;86.80;;;;;;4953657;28;20826;-69
2023/10/11 11:01:55;;;;;;;7.77;5.40;;;24.80;87.70;;;;;;4968389;28;21049;-69
2023/10/11 11:04:28;;;;;;;6.47;5.97;;;24.90;85.80;;;;;;4955281;28;20756;-70
2023/10/11 11:06:55;;;;;;;6.93;6.40;;;24.90;87.10;;;;;;4968732;28;20880;-70
2023/10/11 11:09:28;;;;;;;6.27;5.77;;;24.90;86.00;;;;;;4962451;28;20415;-70
2023/10/11 11:12:14;;;;;;;7.43;5.37;;;24.90;87.70;;;;;;4965963;28;20884;-70
2023/10/11 11:14:54;;;;;;;7.07;6.07;;;24.90;86.40;;;;;;4964896;28;20880;-71
2023/10/11 11:17:20;;;;;;;6.10;5.50;;;25.00;86.30;;;;;;4965119;28;20428;-70
2023/10/11 11:23:04;;;;;;;6.63;6.00;;;25.00;87.20;;;;;;4956698;28;20450;-70
2023/10/11 11:25:30;;;;;;;43.73;33.77;;;24.80;86.70;;;;;;4966090;28;20434;-73
2023/10/11 11:28:26;;;;;;;72.37;64.37;;;24.80;88.20;;;;;;4969311;28;20829;-70
2023/10/11 11:30:57;;;;;;;20.93;17.90;;;24.70;86.40;;;;;;4965435;28;20683;-69
2023/10/11 11:33:35;;;;;;;7.90;7.20;;;24.70;87.90;;;;;;4963696;28;20935;-69
2023/10/11 11:36:11;;;;;;;10.20;9.20;;;24.80;87.40;;;;;;4965131;28;20432;-71
2023/10/11 11:38:37;;;;;;;9.00;8.20;;;24.90;86.90;;;;;;4954548;28;20401;-68
2023/10/11 11:41:15;;;;;;;7.87;7.27;;;24.90;87.90;;;;;;4965344;28;20424;-70
2023/10/11 11:43:41;;;;;;;8.03;7.10;;;24.90;87.10;;;;;;4965198;28;20891;-69
2023/10/11 11:46:06;;;;;;;10.00;6.70;;;24.90;87.40;;;;;;4963644;28;20409;-70
2023/10/11 11:48:41;;;;;;;13.20;6.77;;;24.90;88.00;;;;;;4962298;28;20621;-69
2023/10/11 11:51:13;;;;;;;8.10;7.20;;;25.00;87.20;;;;;;4956631;28;20204;-70
2023/10/11 11:53:43;;;;;;;8.60;6.80;;;24.90;87.80;;;;;;4971250;28;20459;-68
2023/10/11 11:56:11;;;;;;;11.93;6.13;;;24.90;88.20;;;;;;4970572;28;20419;-68
2023/10/11 11:58:45;;;;;;;7.10;6.40;;;24.90;88.30;;;;;;4970046;28;20424;-70
2023/10/11 12:01:19;;;;;;;7.53;6.60;;;24.80;86.40;;;;;;4970497;28;20588;-69
2023/10/11 12:03:55;;;;;;;12.23;7.10;;;24.70;87.60;;;;;;4953787;28;20402;-69
2023/10/11 12:06:26;;;;;;;10.03;6.10;;;24.60;86.80;;;;;;4967970;28;20435;-66
2023/10/11 12:09:02;;;;;;;8.30;7.17;;;24.60;88.70;;;;;;4970259;28;20440;-68
2023/10/11 12:11:30;;;;;;;9.03;7.00;;;24.70;87.90;;;;;;4969960;28;20404;-69
2023/10/11 12:13:57;;;;;;;7.40;5.43;;;24.60;88.00;;;;;;4970362;28;20494;-68
2023/10/11 12:16:24;;;;;;;6.60;6.00;;;24.50;88.70;;;;;;4952362;28;20420;-68
2023/10/11 12:18:58;;;;;;;7.67;5.70;;;24.40;90.00;;;;;;4970412;28;20452;-69
2023/10/11 12:21:25;;;;;;;7.97;5.53;;;24.40;89.60;;;;;;4969484;28;20764;-67
2023/10/11 12:23:51;;;;;;;7.20;6.23;;;24.30;90.00;;;;;;4970342;28;20426;-68
2023/10/11 12:26:17;;;;;;;8.77;6.20;;;24.30;90.00;;;;;;4970112;28;20415;-69
2023/10/11 12:28:46;;;;;;;9.93;6.40;;;24.20;89.70;;;;;;4969703;28;20498;-68
2023/10/11 12:31:12;;;;;;;18.50;13.53;;;24.10;89.50;;;;;;4970188;28;20975;-69
2023/10/11 12:33:39;;;;;;;39.73;32.87;;;24.00;90.10;;;;;;4969125;28;20464;-68
2023/10/11 12:36:07;;;;;;;15.37;9.53;;;23.90;90.00;;;;;;4968993;28;20627;-68
2023/10/11 12:38:36;;;;;;;9.97;7.40;;;23.90;90.00;;;;;;4969565;28;20427;-68
2023/10/11 12:41:04;;;;;;;13.33;7.60;;;23.90;90.40;;;;;;4973674;28;20419;-69
2023/10/11 12:43:30;;;;;;;9.67;6.50;;;23.90;89.70;;;;;;4972779;28;20419;-68
2023/10/11 12:45:56;;;;;;;10.03;7.77;;;23.90;90.30;;;;;;4973648;28;20412;-68
2023/10/11 12:48:24;;;;;;;7.93;7.00;;;23.90;90.10;;;;;;4973186;28;20934;-64
2023/10/11 12:50:49;;;;;;;8.60;6.30;;;23.90;90.60;;;;;;4973717;28;20259;-69
2023/10/11 12:53:15;;;;;;;9.33;7.57;;;23.90;90.50;;;;;;4972562;28;20550;-66
2023/10/11 12:55:43;;;;;;;10.83;6.80;;;23.90;91.00;;;;;;4971801;28;20177;-67
2023/10/11 12:58:13;;;;;;;12.50;7.80;;;23.80;90.80;;;;;;4973835;28;20260;-67
2023/10/11 13:00:48;;;;;;;8.20;7.03;;;23.80;91.00;;;;;;4971981;28;20435;-67
2023/10/11 13:03:25;;;;;;;7.77;6.87;;;23.70;91.10;;;;;;4974336;28;20399;-68
2023/10/11 13:05:52;;;;;;;11.83;7.50;;;23.70;90.60;;;;;;4958126;29;20748;-68
2023/10/11 13:08:24;;;;;;;9.60;6.80;;;23.80;91.10;;;;;;4958099;29;20475;-68
2023/10/11 13:10:51;;;;;;;7.80;6.37;;;23.80;90.80;;;;;;4958144;29;20758;-67
2023/10/11 13:13:18;;;;;;;8.77;6.03;;;23.80;91.30;;;;;;4957870;29;20456;-67
2023/10/11 13:16:00;;;;;;;7.00;6.30;;;23.70;91.30;;;;;;4957109;29;20420;-68
2023/10/11 13:18:26;;;;;;;8.73;6.23;;;23.60;91.50;;;;;;4957276;29;20475;-67
2023/10/11 13:20:56;;;;;;;7.40;6.23;;;23.70;91.60;;;;;;4957768;29;20424;-68
2023/10/11 13:23:29;;;;;;;9.77;6.30;;;23.70;91.90;;;;;;4957733;29;20408;-68
2023/10/11 13:26:08;;;;;;;9.67;6.17;;;23.80;91.60;;;;;;4957596;29;20455;-68
2023/10/11 13:28:40;;;;;;;115.40;101.80;;;23.80;91.50;;;;;;4956588;28;20460;-68
2023/10/11 13:31:06;;;;;;;341.63;287.40;;;23.80;91.70;;;;;;4959566;28;20570;-68
2023/10/11 13:33:32;;;;;;;10.40;8.63;;;23.80;91.70;;;;;;4976286;28;20914;-68
2023/10/11 13:36:02;;;;;;;24.13;18.40;;;23.90;91.90;;;;;;4973471;28;20196;-66
2023/10/11 13:38:31;;;;;;;7.70;5.90;;;23.80;91.70;;;;;;4955242;28;20810;-67
2023/10/11 13:40:58;;;;;;;14.20;7.23;;;23.80;91.60;;;;;;4972890;28;20427;-67
2023/10/11 13:43:24;;;;;;;12.83;6.97;;;23.90;91.40;;;;;;4972856;28;20458;-63
2023/10/11 13:46:01;;;;;;;9.00;6.80;;;23.90;91.60;;;;;;4955451;28;20857;-66
2023/10/11 13:48:36;;;;;;;7.70;6.37;;;23.90;91.90;;;;;;4971991;28;20448;-67
2023/10/11 13:51:03;;;;;;;11.50;8.60;;;23.90;91.80;;;;;;4972611;28;20923;-67
2023/10/11 13:53:40;;;;;;;8.73;5.93;;;23.90;92.10;;;;;;4972169;28;20463;-65
2023/10/11 13:56:31;;;;;;;7.73;6.80;;;23.90;92.30;;;;;;4972706;28;20501;-65
2023/10/11 13:58:57;;;;;;;8.23;6.80;;;23.90;92.40;;;;;;4972789;28;20498;-66
2023/10/11 14:04:47;;;;;;;12.10;7.47;;;23.90;92.80;;;;;;4972962;28;20400;-66
2023/10/11 14:07:37;;;;;;;8.80;7.70;;;23.90;92.40;;;;;;4970585;28;20947;-65
2023/10/11 14:09:45;;;;;;;6.27;5.87;;;24.00;92.00;;;;;;4963528;28;20928;-65
2023/10/11 14:12:17;;;;;;;7.30;6.03;;;24.00;92.50;;;;;;4971540;28;20493;-65
2023/10/11 14:14:44;;;;;;;7.47;5.83;;;24.00;92.40;;;;;;4970229;28;20423;-67